Tiempo atmosférico en la estación meteorológica de Villarrasa, Huelva (145 m.)



Fecha
DESCASC
Temp. máxima en grados centígrados (hora)
DESCASC
Temp. mínima en grados centígrados (hora)
DESCASC
Temp. media en grados centígrados
DESCASC
Racha de viento máxima en m/sg (hora)
DESCASC
Velocidad máxima media en intervalos de 10 minutos(hora)
DESCASC
Precipitaciones diarias en mm
DESCASC
Precipitaciones de 00:00 a 06:00 en mm
DESCASC
Precipitaciones de 06:00 a 12:00 en mm
DESCASC
Precipitaciones de 12:00 a 18:00 en mm
DESCASC
Precipitaciones de 18:00 a 24:00 en mm
DESCASC
22-04-2019 24.6 (15:10) 7.8 (07:10) 16.2 11.11 (17:20) 6.11 (15:30) 0 0 0 0 0
21-04-2019 21.8 (17:30) 11.3 (23:50) 16.5 10.83 (14:10) 5 (13:40) 0 0 0 0 0
20-04-2019 20 (17:50) 8.4 (02:50) 14.2 10.83 (21:20) 4.72 (22:10) 0 0 0 0 0
19-04-2019 19.6 (14:50) 5.7 (07:30) 12.7 9.17 (15:50) 5.28 (15:50) 4 0 0.2 3.8 0
18-04-2019 19.3 (13:30) 8.4 (00:00) 13.8 8.06 (14:10) 4.17 (14:00) 5.8 0.8 2 3 0
17-04-2019 21 (13:20) 8 (00:00) 14.5 13.06 (15:50) 6.94 (13:10) 0.2 0 0 0.2 0
16-04-2019 25.7 (18:00) 6.6 (00:00) 16.2 7.78 (15:00) 4.17 (19:20) 0 0 0 0 0
15-04-2019 25.5 (15:50) 9.7 (00:00) 17.6 10.28 (15:40) 5.56 (17:10) 0 0 0 0 0
14-04-2019 27.3 (17:40) 9.4 (00:00) 18.3 6.11 (18:50) 3.61 (18:50) 0 0 0 0 0
13-04-2019 25.3 (16:00) 6 (00:00) 15.6 10 (18:00) 5.28 (18:50) 0 0 0 0 0
12-04-2019 24.1 (16:40) 5.7 (00:00) 14.9 9.72 (18:00) 6.11 (17:50) 0 0 0 0 0
11-04-2019 22.5 (17:30) 5 (00:00) 13.8 8.33 (18:20) 4.44 (17:30) 0 0 0 0 0
10-04-2019 19.6 (17:30) 4.7 (00:00) 12.2 12.5 (15:40) 6.67 (15:00) 0 0 0 0 0
09-04-2019 18.1 (14:50) 5.7 (00:00) 11.9 10.56 (16:50) 5.83 (18:00) 0 0 0 0 0
08-04-2019 18 (13:20) 11.6 (00:00) 14.8 10.28 (18:50) 5.28 (18:50) 6.6 0.2 6 0.4 0
07-04-2019 15.7 (18:50) 7.6 (00:00) 11.6 11.11 (19:00) 6.39 (19:00) 10 1.8 0 4 4.2
06-04-2019 16.3 (18:30) 4.2 (00:00) 10.2 14.44 (14:00) 7.22 (16:30) 2.6 0 0.4 2.2 0
05-04-2019 15.9 (16:40) 6.8 (00:00) 11.3 14.44 (13:30) 7.5 (13:00) 12.8 8.2 1 0 3.6
04-04-2019 20 (16:30) 3.7 (00:00) 11.9 11.67 (19:30) 5.56 (19:40) 0 0 0 0 0
03-04-2019 20.9 (16:10) 6.3 (00:00) 13.6 10.83 (16:20) 6.39 (17:50) 0 0 0 0 0
02-04-2019 23.4 (18:20) 8.4 (00:00) 15.9 8.06 (19:30) 4.44 (19:30) 0 0 0 0 0
01-04-2019 20.9 (14:40) 9.3 (00:00) 15.1 7.22 (15:20) 3.61 (15:20) 9.8 0 0 9.8 0
31-03-2019 21 (14:30) 10.4 (00:00) 15.7 6.11 (16:00) 3.06 (16:00) 6.2 0 0 5.8 0.4
30-03-2019 25.5 (16:10) 7.7 (00:00) 16.6 10 (18:00) 4.44 (18:10) 0 0 0 0 0
29-03-2019 24.1 (16:40) 6.4 (00:00) 15.3 7.78 (13:40) 4.17 (11:40) 0 0 0 0 0
28-03-2019 23 (16:00) 6.7 (00:00) 14.8 14.17 (10:40) 6.11 (10:30) 0 0 0 0 0
27-03-2019 23.2 (17:10) 7.7 (00:00) 15.5 10.56 (11:10) 5.28 (11:20) 0 0 0 0 0
26-03-2019 27.5 (15:40) 8.9 (00:00) 18.2 11.39 (09:20) 6.11 (16:30) 0 0 0 0 0
25-03-2019 25.4 (16:10) 10 (00:00) 17.7 12.22 (14:40) 5.83 (16:20) 0 0 0 0 0

Gráficas

Temp. máximas Temp. mínimas Temp. medias Precipitaciones Rachas de viento máximas Velocidades máximas media en intervalos de 10 minutos

Datos horarios

Fecha y hora oficial Temperatura (ºC) Velocidad del viento (km/h) Dirección del viento Racha (km/h) Dirección de racha Precipitación (mm) Presión (hPa) Tendencia (hPa) Humedad (%)
2019-04-23 23:00:00 9.9 6 Oeste 18 Oeste 0 -- -- 85
2019-04-23 22:00:00 9.7 5 Sudoeste 8 Sudoeste 0 -- -- 88
2019-04-23 21:00:00 11.5 3 Sudoeste 12 Oeste 0 -- -- 79
2019-04-23 20:00:00 11 4 Noroeste 20 Sudoeste 1 -- -- 83
2019-04-23 19:00:00 13 11 Sudoeste 30 Sudoeste 0 -- -- 70
2019-04-23 18:00:00 12.7 10 Oeste 41 Oeste 0.2 -- -- 71
2019-04-23 17:00:00 16.6 19 Sudoeste 43 Oeste 0 -- -- 47
2019-04-23 16:00:00 15.9 19 Oeste 42 Oeste 0 -- -- 52
2019-04-23 15:00:00 15.3 23 Oeste 39 Sudoeste 0 -- -- 53
2019-04-23 14:00:00 13.7 15 Noroeste 58 Oeste 0 -- -- 63
2019-04-23 13:00:00 14.3 17 Oeste 30 Oeste 0.4 -- -- 62
2019-04-23 12:00:00 13.4 14 Oeste 26 Oeste 0 -- -- 64
2019-04-23 11:00:00 12.9 12 Oeste 28 Oeste 0 -- -- 69
2019-04-23 10:00:00 11.8 11 Oeste 23 Noroeste 0 -- -- 80
2019-04-23 09:00:00 10.2 6 Oeste 16 Oeste 0 -- -- 93
2019-04-23 08:00:00 9.5 9 Oeste 19 Noroeste 0 -- -- 94
2019-04-23 07:00:00 9.7 11 Noroeste 24 Noroeste 0.2 -- -- 92
2019-04-23 06:00:00 9.7 9 Noroeste 23 Sudoeste 0.6 -- -- 92
2019-04-23 05:00:00 10.9 14 Noroeste 33 Noroeste 1.6 -- -- 92
2019-04-23 04:00:00 12.8 22 Oeste 37 Oeste 2.8 -- -- 91
2019-04-23 03:00:00 13.5 7 Sudoeste 19 Sudoeste 0 -- -- 89
2019-04-23 02:00:00 14 11 Sudoeste 24 Sudoeste 0 -- -- 84
2019-04-23 01:00:00 13.9 9 Sudoeste 24 Oeste 0 -- -- 84
2019-04-23 00:00:00 14.2 15 Sudoeste 32 Sudoeste 0 -- -- 84
2019-04-22 23:00:00 14.1 10 Sudoeste 32 Sudoeste 0 -- -- 84
2019-04-22 22:00:00 14.9 14 Sudoeste 29 Sudoeste 0 -- -- 83
2019-04-22 21:00:00 15.6 16 Sudoeste 32 Sudoeste 0 -- -- 81
2019-04-22 20:00:00 17.5 15 Sudoeste 30 Sudoeste 0 -- -- 70
2019-04-22 19:00:00 19.4 17 Sudoeste 36 Sudoeste 0 -- -- 55
2019-04-22 18:00:00 22.2 17 Sudoeste 40 Sudoeste 0 -- -- 45
2019-04-22 17:00:00 22.5 21 Sudoeste 40 Sudoeste 0 -- -- 47
2019-04-22 16:00:00 23.2 19 Oeste 39 Noroeste 0 -- -- 45
2019-04-22 15:00:00 24.1 17 Oeste 34 Noroeste 0 -- -- 30
2019-04-22 14:00:00 23 14 Oeste 33 Oeste 0 -- -- 44
2019-04-22 13:00:00 20.7 8 Oeste 22 Oeste 0 -- -- 52
2019-04-22 12:00:00 18.9 6 Sur 12 Sudeste 0 -- -- 62
2019-04-22 11:00:00 16.9 5 Sur 11 Sur 0 -- -- 66
2019-04-22 10:00:00 15 5 Sur 9 Sudeste 0 -- -- 74
2019-04-22 09:00:00 11.2 3 Norte 7 Nordeste 0 -- -- 88
2019-04-22 08:00:00 9 3 Norte 6 Nordeste 0 -- -- 96
2019-04-22 07:00:00 7.9 4 Norte 7 Nordeste 0 -- -- 95
2019-04-22 06:00:00 8.1 4 Norte 5 Norte 0 -- -- 94
2019-04-22 05:00:00 9.4 2 Nordeste 4 Norte 0 -- -- 91
2019-04-22 04:00:00 11.4 3 Norte 5 Noroeste 0 -- -- 88
2019-04-22 03:00:00 11.7 3 Noroeste 6 Norte 0 -- -- 87
2019-04-22 02:00:00 10.8 5 Norte 6 Norte 0 -- -- 91
2019-04-22 01:00:00 9.9 2 Nordeste 5 Sudoeste 0 -- -- 89
2019-04-22 00:00:00 11.3 0 Calma 5 Nordeste 0 -- -- 86
2019-04-21 23:00:00 12.9 2 Este 8 Nordeste 0 -- -- 81
2019-04-21 22:00:00 15.2 0 Calma 10 Sudeste 0 -- -- 74
2019-04-21 21:00:00 17.6 3 Sudoeste 22 Norte 0 -- -- 64
2019-04-21 20:00:00 20 10 Norte 21 Nordeste 0 -- -- 44
2019-04-21 19:00:00 21.1 9 Nordeste 21 Nordeste 0 -- -- 42
2019-04-21 18:00:00 21.5 10 Nordeste 26 Norte 0 -- -- 40
2019-04-21 17:00:00 21 14 Norte 27 Norte 0 -- -- 42
2019-04-21 16:00:00 21.5 13 Norte 30 Norte 0 -- -- 42
2019-04-21 15:00:00 21 12 Norte 39 Norte 0 -- -- 43
2019-04-21 14:00:00 20.7 18 Nordeste 33 Norte 0 -- -- 44
2019-04-21 13:00:00 19.7 13 Nordeste 33 Nordeste 0 -- -- 46
2019-04-21 12:00:00 17.5 14 Nordeste 29 Norte 0 -- -- 52
2019-04-21 11:00:00 16.2 13 Norte 29 Norte 0 -- -- 58
2019-04-21 10:00:00 14.4 14 Norte 24 Norte 0 -- -- 63
2019-04-21 09:00:00 13 9 Norte 21 Norte 0 -- -- 70
2019-04-21 08:00:00 11.7 9 Norte 16 Norte 0 -- -- 74
2019-04-21 07:00:00 12 8 Norte 15 Norte 0 -- -- 73
2019-04-21 06:00:00 12.1 6 Norte 10 Norte 0 -- -- 73
2019-04-21 05:00:00 13.8 5 Norte 13 Nordeste 0 -- -- 66
2019-04-21 04:00:00 14.6 6 Nordeste 21 Nordeste 0 -- -- 62
2019-04-21 03:00:00 14.9 8 Nordeste 25 Nordeste 0 -- -- 61
2019-04-21 02:00:00 15.3 12 Nordeste 22 Nordeste 0 -- -- 59
2019-04-21 01:00:00 14.8 10 Norte 24 Nordeste 0 -- -- 65
2019-04-21 00:00:00 15 9 Nordeste 28 Nordeste 0 -- -- 65
2019-04-20 23:00:00 15.2 11 Norte 34 Norte 0 -- -- 65
2019-04-20 22:00:00 15.5 14 Norte 39 Nordeste 0 -- -- 64
2019-04-20 21:00:00 16.4 13 Nordeste 34 Nordeste 0 -- -- 62
2019-04-20 20:00:00 17.9 15 Nordeste 31 Norte 0 -- -- 56
2019-04-20 19:00:00 18.5 16 Nordeste 32 Nordeste 0 -- -- 54
2019-04-20 18:00:00 19.9 12 Norte 28 Nordeste 0 -- -- 53
2019-04-20 17:00:00 19.3 12 Nordeste 27 Este 0 -- -- 54
2019-04-20 16:00:00 18.7 10 Norte 24 Norte 0 -- -- 57
2019-04-20 15:00:00 18.1 10 Norte 22 Nordeste 0 -- -- 59
2019-04-20 14:00:00 17.9 11 Nordeste 22 Nordeste 0 -- -- 59
2019-04-20 13:00:00 17 8 Nordeste 18 Norte 0 -- -- 64
2019-04-20 12:00:00 15.4 10 Norte 22 Nordeste 0 -- -- 71
2019-04-20 11:00:00 14.6 8 Nordeste 19 Nordeste 0 -- -- 71
2019-04-20 10:00:00 12.5 3 Norte 15 Norte 0 -- -- 78
2019-04-20 09:00:00 11.7 5 Nordeste 25 Norte 0 -- -- 79
2019-04-20 08:00:00 11.6 13 Norte 26 Norte 0 -- -- 80
2019-04-20 07:00:00 11.3 10 Norte 18 Norte 0 -- -- 84
2019-04-20 06:00:00 11.3 7 Norte 15 Norte 0 -- -- 84
2019-04-20 05:00:00 10.7 5 Norte 14 Nordeste 0 -- -- 87
2019-04-20 04:00:00 10.1 4 Norte 12 Norte 0 -- -- 91
2019-04-20 03:00:00 9.1 4 Norte 7 Norte 0 -- -- 96
2019-04-20 02:00:00 9.5 4 Norte 6 Norte 0 -- -- 96
2019-04-20 01:00:00 10.7 3 Nordeste 6 Nordeste 0 -- -- 92
2019-04-20 00:00:00 12.5 2 Este 7 Este 0 -- -- 86
2019-04-19 23:00:00 13 3 Nordeste 8 Nordeste 0 -- -- 84
2019-04-19 22:00:00 13.3 5 Norte 10 Norte 0 -- -- 82
2019-04-19 21:00:00 14.7 7 Noroeste 13 Oeste 0 -- -- 77
2019-04-19 20:00:00 16.6 8 Oeste 20 Oeste 0 -- -- 75
2019-04-19 19:00:00 16.3 9 Sudoeste 16 Sudoeste 0 -- -- 82
2019-04-19 18:00:00 14.7 8 Oeste 13 Oeste 0 -- -- 86
2019-04-19 17:00:00 11.8 8 Noroeste 25 Norte 3.8 -- -- 92
2019-04-19 16:00:00 12 17 Norte 33 Noroeste 0 -- -- 87
2019-04-19 15:00:00 19.5 5 Sudoeste 17 Sur 0 -- -- 50
2019-04-19 14:00:00 19 4 Sudeste 17 Sudoeste 0 -- -- 54
2019-04-19 13:00:00 18.2 7 Sudoeste 13 Sudeste 0 -- -- 59
2019-04-19 12:00:00 15.9 3 Sudeste 9 Sudeste 0 -- -- 75
2019-04-19 11:00:00 13.8 3 Sudeste 9 Sudeste 0 -- -- 81
2019-04-19 10:00:00 11.5 3 Nordeste 8 Nordeste 0.2 -- -- 90
2019-04-19 09:00:00 8.5 3 Norte 10 Nordeste 0 -- -- 98
2019-04-19 08:00:00 6.8 6 Norte 10 Norte 0 -- -- 99
2019-04-19 07:00:00 6.4 3 Nordeste 10 Nordeste 0 -- -- 98
2019-04-19 06:00:00 7.1 4 Norte 7 Norte 0 -- -- 97
2019-04-19 05:00:00 7.2 4 Norte 6 Norte 0 -- -- 98
2019-04-19 04:00:00 6.6 3 Norte 6 Oeste 0 -- -- 97
2019-04-19 03:00:00 6.9 4 Norte 6 Nordeste 0 -- -- 96
2019-04-19 02:00:00 8 0 Calma 4 Norte 0 -- -- 95
2019-04-19 01:00:00 8.4 4 Norte 8 Norte 0 -- -- 95
2019-04-19 00:00:00 9.6 6 Norte 9 Norte 0 -- -- 96
2019-04-18 23:00:00 8.4 5 Noroeste 6 Noroeste 0 -- -- 95
2019-04-18 22:00:00 9.9 3 Oeste 5 Noroeste 0 -- -- 92
2019-04-18 21:00:00 12.2 4 Norte 9 Noroeste 0 -- -- 84
2019-04-18 20:00:00 13.9 6 Norte 13 Norte 0 -- -- 77
2019-04-18 19:00:00 13.4 8 Norte 13 Norte 0 -- -- 84
2019-04-18 18:00:00 12 6 Noroeste 15 Noroeste 0.4 -- -- 88
2019-04-18 17:00:00 12.8 9 Sudoeste 23 Oeste 0.2 -- -- 83
2019-04-18 16:00:00 13.4 14 Oeste 26 Oeste 0.4 -- -- 83
2019-04-18 15:00:00 12.4 5 Sudoeste 29 Sudoeste 2 -- -- 91
2019-04-18 14:00:00 15.7 15 Sur 27 Sur 0 -- -- 72
2019-04-18 13:00:00 18.6 8 Este 14 Este 0 -- -- 65
2019-04-18 12:00:00 16.8 5 Sudoeste 16 Sur 0 -- -- 71
2019-04-18 11:00:00 15 3 Este 10 Norte 0 -- -- 84
2019-04-18 10:00:00 12.5 4 Nordeste 11 Nordeste 0 -- -- 96
2019-04-18 09:00:00 11.6 6 Nordeste 12 Nordeste 0.8 -- -- 96
2019-04-18 08:00:00 11.2 3 Este 8 Este 1 -- -- 96
2019-04-18 07:00:00 11.3 4 Nordeste 10 Nordeste 0.2 -- -- 97
2019-04-18 06:00:00 10.8 3 Nordeste 6 Nordeste 0.2 -- -- 97
2019-04-18 05:00:00 10.6 0 Calma 6 Nordeste 0.4 -- -- 96
2019-04-18 04:00:00 9.9 3 Norte 6 Nordeste 0.2 -- -- 97
2019-04-18 03:00:00 8.8 3 Norte 5 Norte 0 -- -- 96
2019-04-18 02:00:00 8.6 3 Norte 5 Norte 0 -- -- 95
2019-04-18 01:00:00 8.9 4 Norte 5 Norte 0 -- -- 94
2019-04-18 00:00:00 10.3 0 Calma 4 Sudoeste 0 -- -- 89
2019-04-17 23:00:00 13.4 4 Sudoeste 13 Sudoeste 0 -- -- 79
2019-04-17 22:00:00 13.8 4 Sur 15 Sudoeste 0 -- -- 76
2019-04-17 21:00:00 13.4 5 Sur 13 Sur 0 -- -- 83
2019-04-17 20:00:00 14 6 Este 14 Este 0 -- -- 83
2019-04-17 19:00:00 14.4 5 Sudeste 10 Sudeste 0 -- -- 84
2019-04-17 18:00:00 14.2 4 Sudeste 14 Sudoeste 0 -- -- 87
2019-04-17 17:00:00 13.9 6 Sudoeste 34 Sudoeste 0.2 -- -- 88
2019-04-17 16:00:00 16.6 19 Sudoeste 47 Sudoeste 0 -- -- 78
2019-04-17 15:00:00 20 19 Sur 43 Sur 0 -- -- 59
2019-04-17 14:00:00 20.1 22 Sur 43 Sur 0 -- -- 60
2019-04-17 13:00:00 20.8 22 Sur 39 Sudeste 0 -- -- 60
2019-04-17 12:00:00 19.5 12 Sur 22 Sudeste 0 -- -- 66
2019-04-17 11:00:00 17.3 7 Sur 13 Sur 0 -- -- 68
2019-04-17 10:00:00 15.3 2 Sur 5 Sudoeste 0 -- -- 76
2019-04-17 09:00:00 10.5 3 Norte 4 Norte 0 -- -- 95
2019-04-17 08:00:00 9.2 3 Norte 5 Norte 0 -- -- 95
2019-04-17 07:00:00 8.9 3 Norte 6 Nordeste 0 -- -- 95
2019-04-17 06:00:00 8.4 4 Nordeste 6 Norte 0 -- -- 95
2019-04-17 05:00:00 8.2 4 Norte 6 Nordeste 0 -- -- 95
2019-04-17 04:00:00 8.3 4 Norte 8 Nordeste 0 -- -- 93
2019-04-17 03:00:00 8.7 3 Norte 5 Norte 0 -- -- 92
2019-04-17 02:00:00 10.1 3 Nordeste 5 Nordeste 0 -- -- 89
2019-04-17 01:00:00 11 3 Noroeste 8 Oeste 0 -- -- 85
2019-04-17 00:00:00 13.1 6 Oeste 10 Oeste 0 -- -- 80
2019-04-16 23:00:00 14.5 4 Oeste 10 Oeste 0 -- -- 75
2019-04-16 22:00:00 16.3 4 Sudoeste 8 Sudoeste 0 -- -- 61
2019-04-16 21:00:00 19.1 4 Sudoeste 23 Sur 0 -- -- 51
2019-04-16 20:00:00 22.5 12 Sur 27 Sur 0 -- -- 38
2019-04-16 19:00:00 24.8 12 Sur 27 Sur 0 -- -- 29
2019-04-16 18:00:00 25.7 11 Sudeste 27 Sudeste 0 -- -- 32
2019-04-16 17:00:00 25.5 8 Sudeste 23 Sur 0 -- -- 34
2019-04-16 16:00:00 24.3 10 Sudeste 23 Sudeste 0 -- -- 36
2019-04-16 15:00:00 23.7 12 Sudeste 28 Este 0 -- -- 43
2019-04-16 14:00:00 22.6 10 Sudeste 22 Sudeste 0 -- -- 47
2019-04-16 13:00:00 21 12 Sudeste 24 Sudeste 0 -- -- 50
2019-04-16 12:00:00 19.5 10 Sudeste 20 Este 0 -- -- 59
2019-04-16 11:00:00 17.7 10 Sudeste 18 Sudeste 0 -- -- 64
2019-04-16 10:00:00 14.6 6 Este 13 Nordeste 0 -- -- 76
2019-04-16 09:00:00 10.4 4 Nordeste 8 Este 0 -- -- 92
2019-04-16 08:00:00 8.9 7 Nordeste 12 Nordeste 0 -- -- 93
2019-04-16 07:00:00 9.3 8 Nordeste 11 Nordeste 0 -- -- 94
2019-04-16 06:00:00 6.9 5 Norte 9 Nordeste 0 -- -- 96
2019-04-16 05:00:00 7.4 3 Noroeste 4 Noroeste 0 -- -- 94
2019-04-16 04:00:00 9.2 2 Sudoeste 5 Noroeste 0 -- -- 89
2019-04-16 03:00:00 11.9 6 Noroeste 15 Noroeste 0 -- -- 82
2019-04-16 02:00:00 12.4 4 Noroeste 17 Noroeste 0 -- -- 78
2019-04-16 01:00:00 12.8 8 Noroeste 14 Noroeste 0 -- -- 75
2019-04-16 00:00:00 13.6 6 Noroeste 15 Noroeste 0 -- -- 71
2019-04-15 23:00:00 15.2 8 Noroeste 15 Noroeste 0 -- -- 64
2019-04-15 22:00:00 16.4 6 Oeste 15 Oeste 0 -- -- 61
2019-04-15 21:00:00 17.8 4 Sudoeste 24 Sudoeste 0 -- -- 68
2019-04-15 20:00:00 19.7 8 Sudoeste 28 Sur 0 -- -- 68
2019-04-15 19:00:00 20 10 Sudoeste 28 Sudoeste 0 -- -- 65
2019-04-15 18:00:00 22.3 17 Sudoeste 36 Sudoeste 0 -- -- 55
2019-04-15 17:00:00 21.8 15 Sudoeste 37 Oeste 0 -- -- 56
2019-04-15 16:00:00 24.3 19 Oeste 37 Oeste 0 -- -- 42
2019-04-15 15:00:00 23.3 15 Noroeste 35 Oeste 0 -- -- 40
2019-04-15 14:00:00 22.8 10 Noroeste 33 Oeste 0 -- -- 46
2019-04-15 13:00:00 22.6 14 Oeste 25 Noroeste 0 -- -- 51
2019-04-15 12:00:00 21.3 13 Oeste 23 Noroeste 0 -- -- 57
2019-04-15 11:00:00 20.1 10 Oeste 17 Noroeste 0 -- -- 60
2019-04-15 10:00:00 17.4 8 Oeste 14 Noroeste 0 -- -- 69
2019-04-15 09:00:00 11.7 3 Noroeste 8 Oeste 0 -- -- 92
2019-04-15 08:00:00 10 2 Noroeste 4 Norte 0 -- -- 94
2019-04-15 07:00:00 10.2 3 Noroeste 6 Nordeste 0 -- -- 94
2019-04-15 06:00:00 10.7 5 Nordeste 10 Nordeste 0 -- -- 92
2019-04-15 05:00:00 11 6 Nordeste 9 Nordeste 0 -- -- 92
2019-04-15 04:00:00 11.4 5 Norte 8 Norte 0 -- -- 90
2019-04-15 03:00:00 12.2 3 Norte 9 Norte 0 -- -- 88
2019-04-15 02:00:00 12.4 5 Norte 7 Norte 0 -- -- 87
2019-04-15 01:00:00 13.4 4 Norte 8 Nordeste 0 -- -- 84
2019-04-15 00:00:00 14.8 4 Nordeste 8 Nordeste 0 -- -- 80
2019-04-14 23:00:00 17.4 3 Noroeste 4 Oeste 0 -- -- 71
2019-04-14 22:00:00 18.5 2 Oeste 6 Oeste 0 -- -- 67
2019-04-14 21:00:00 21.2 2 Sur 15 Sudoeste 0 -- -- 53
2019-04-14 20:00:00 23 8 Sudoeste 18 Sudoeste 0 -- -- 50
2019-04-14 19:00:00 25 13 Sudoeste 22 Sudoeste 0 -- -- 46
2019-04-14 18:00:00 26.8 9 Sur 17 Sudeste 0 -- -- 41
2019-04-14 17:00:00 27 8 Sur 20 Sur 0 -- -- 41
2019-04-14 16:00:00 26.8 8 Oeste 17 Sur 0 -- -- 42
2019-04-14 15:00:00 25.2 5 Sudoeste 15 Sudoeste 0 -- -- 48
2019-04-14 14:00:00 24.3 7 Sur 19 Sur 0 -- -- 50
2019-04-14 13:00:00 23 9 Sudeste 17 Sudeste 0 -- -- 52
2019-04-14 12:00:00 21.5 8 Sudeste 19 Sudeste 0 -- -- 58
2019-04-14 11:00:00 19.3 7 Este 13 Este 0 -- -- 66
2019-04-14 10:00:00 16.4 3 Este 8 Este 0 -- -- 76
2019-04-14 09:00:00 11.8 3 Nordeste 7 Nordeste 0 -- -- 95
2019-04-14 08:00:00 9.5 0 Calma 6 Noroeste 0 -- -- 94
2019-04-14 07:00:00 10.7 5 Noroeste 11 Norte 0 -- -- 93
2019-04-14 06:00:00 9.6 3 Nordeste 7 Este 0 -- -- 89
2019-04-14 05:00:00 11.4 0 Calma 10 Norte 0 -- -- 89
2019-04-14 04:00:00 10.5 0 Calma 7 Norte 0 -- -- 85
2019-04-14 03:00:00 10.2 3 Noroeste 6 Sur 0 -- -- 82
2019-04-14 02:00:00 10.6 5 Norte 8 Norte 0 -- -- 79
2019-04-14 01:00:00 13.1 6 Norte 10 Norte 0 -- -- 66
2019-04-14 00:00:00 12.6 0 Calma 10 Oeste 0 -- -- 67
2019-04-13 23:00:00 14.4 8 Noroeste 14 Oeste 0 -- -- 58
2019-04-13 22:00:00 16.1 8 Sudoeste 18 Sudoeste 0 -- -- 52
2019-04-13 21:00:00 17.9 12 Sudoeste 24 Sudoeste 0 -- -- 51
2019-04-13 20:00:00 20.7 15 Sudoeste 27 Sudoeste 0 -- -- 44
2019-04-13 19:00:00 22.2 17 Sudoeste 32 Sudoeste 0 -- -- 41
2019-04-13 18:00:00 23.7 15 Sudoeste 36 Sudoeste 0 -- -- 37
2019-04-13 17:00:00 23.8 17 Sudoeste 33 Sudoeste 0 -- -- 36
2019-04-13 16:00:00 25.3 14 Oeste 30 Oeste 0 -- -- 35
2019-04-13 15:00:00 24.3 10 Sudoeste 22 Sur 0 -- -- 34
2019-04-13 14:00:00 23.7 8 Sur 19 Sur 0 -- -- 34
2019-04-13 13:00:00 22.5 8 Sudeste 19 Sudeste 0 -- -- 33
2019-04-13 12:00:00 20.5 6 Sudeste 12 Sudeste 0 -- -- 47
2019-04-13 11:00:00 18.2 6 Sudeste 11 Sudeste 0 -- -- 54
2019-04-13 10:00:00 15.2 4 Sudeste 6 Sudeste 0 -- -- 71
2019-04-13 09:00:00 9.2 2 Sudeste 5 Sudoeste 0 -- -- 95
2019-04-13 08:00:00 6.1 3 Norte 4 Norte 0 -- -- 94
2019-04-13 07:00:00 7.1 0 Calma 6 Noroeste 0 -- -- 91
2019-04-13 06:00:00 7.4 4 Noroeste 7 Noroeste 0 -- -- 89
2019-04-13 05:00:00 7.8 2 Oeste 4 Noroeste 0 -- -- 83
2019-04-13 04:00:00 11.3 4 Este 18 Noroeste 0 -- -- 66
2019-04-13 03:00:00 12.6 11 Noroeste 18 Norte 0 -- -- 61
2019-04-13 02:00:00 12.4 8 Noroeste 13 Noroeste 0 -- -- 60
2019-04-13 01:00:00 11.6 5 Noroeste 9 Noroeste 0 -- -- 65
2019-04-13 00:00:00 12.5 4 Noroeste 13 Oeste 0 -- -- 60
2019-04-12 23:00:00 13.3 9 Oeste 13 Oeste 0 -- -- 57
2019-04-12 22:00:00 15.3 8 Oeste 16 Oeste 0 -- -- 52
2019-04-12 21:00:00 17.2 12 Sudoeste 32 Oeste 0 -- -- 47
2019-04-12 20:00:00 19.7 19 Sudoeste 30 Sudoeste 0 -- -- 44
2019-04-12 19:00:00 21.6 13 Sudoeste 34 Sudoeste 0 -- -- 39
2019-04-12 18:00:00 22.5 18 Sudoeste 35 Sudoeste 0 -- -- 35
2019-04-12 17:00:00 23.2 10 Sudoeste 30 Oeste 0 -- -- 33
2019-04-12 16:00:00 24 8 Oeste 23 Sudeste 0 -- -- 33
2019-04-12 15:00:00 22.2 8 Sudoeste 18 Sudoeste 0 -- -- 36
2019-04-12 14:00:00 22.3 8 Sur 16 Sur 0 -- -- 36
2019-04-12 13:00:00 20.3 8 Sur 19 Sur 0 -- -- 44
2019-04-12 12:00:00 17.9 7 Sur 13 Sur 0 -- -- 55
2019-04-12 11:00:00 16 6 Sudeste 10 Sudeste 0 -- -- 57
2019-04-12 10:00:00 13 3 Sur 6 Sur 0 -- -- 71
2019-04-12 09:00:00 7.9 0 Calma 3 Sudoeste 0 -- -- 90
2019-04-12 08:00:00 5.8 2 Sudoeste 4 Oeste 0 -- -- 92
2019-04-12 07:00:00 6.2 2 Norte 4 Este 0 -- -- 88
2019-04-12 06:00:00 9.9 2 Este 13 Norte 0 -- -- 73
2019-04-12 05:00:00 11.7 9 Norte 18 Noroeste 0 -- -- 67
2019-04-12 04:00:00 12.6 10 Norte 18 Norte 0 -- -- 63
2019-04-12 03:00:00 12.3 9 Norte 18 Norte 0 -- -- 63
2019-04-12 02:00:00 12.7 6 Norte 15 Norte 0 -- -- 61
2019-04-12 01:00:00 14.2 9 Noroeste 21 Norte 0 -- -- 56
2019-04-12 00:00:00 15.2 12 Norte 24 Noroeste 0 -- -- 52
2019-04-11 23:00:00 15.5 12 Noroeste 22 Norte 0 -- -- 50
2019-04-11 22:00:00 16 11 Noroeste 17 Noroeste 0 -- -- 48
2019-04-11 21:00:00 17.9 9 Noroeste 25 Noroeste 0 -- -- 40
2019-04-11 20:00:00 20 14 Noroeste 26 Noroeste 0 -- -- 36
2019-04-11 19:00:00 21.3 15 Noroeste 30 Noroeste 0 -- -- 32
2019-04-11 18:00:00 21.7 10 Noroeste 29 Oeste 0 -- -- 35
2019-04-11 17:00:00 22.1 10 Oeste 26 Oeste 0 -- -- 34
2019-04-11 16:00:00 21.1 13 Oeste 22 Oeste 0 -- -- 42
2019-04-11 15:00:00 21.2 6 Sudoeste 23 Oeste 0 -- -- 44
2019-04-11 14:00:00 18.8 12 Sur 22 Sur 0 -- -- 53
2019-04-11 13:00:00 18.2 9 Sudoeste 19 Sudoeste 0 -- -- 55
2019-04-11 12:00:00 16.6 8 Sur 15 Sur 0 -- -- 61
2019-04-11 11:00:00 14.4 4 Sur 9 Sudoeste 0 -- -- 68
2019-04-11 10:00:00 11 2 Oeste 5 Noroeste 0 -- -- 83
2019-04-11 09:00:00 7.4 0 Calma 4 Oeste 0 -- -- 96
2019-04-11 08:00:00 5.1 3 Oeste 6 Noroeste 0 -- -- 94
2019-04-11 07:00:00 6.3 3 Noroeste 8 Noroeste 0 -- -- 93
2019-04-11 06:00:00 6.3 5 Noroeste 9 Norte 0 -- -- 92
2019-04-11 05:00:00 8.8 4 Noroeste 14 Noroeste 0 -- -- 83
2019-04-11 04:00:00 8.9 7 Noroeste 12 Noroeste 0 -- -- 83
2019-04-11 03:00:00 8.2 3 Oeste 12 Oeste 0 -- -- 82
2019-04-11 02:00:00 9.5 4 Sur 15 Noroeste 0 -- -- 74
2019-04-11 01:00:00 11.3 9 Noroeste 14 Noroeste 0 -- -- 66
2019-04-11 00:00:00 12.6 9 Noroeste 15 Noroeste 0 -- -- 60
2019-04-10 23:00:00 13.1 6 Noroeste 18 Noroeste 0 -- -- 58
2019-04-10 22:00:00 14.8 10 Noroeste 19 Norte 0 -- -- 50
2019-04-10 21:00:00 15.8 10 Noroeste 29 Noroeste 0 -- -- 48
2019-04-10 20:00:00 17.7 18 Noroeste 35 Noroeste 0 -- -- 44
2019-04-10 19:00:00 19 18 Noroeste 36 Oeste 0 -- -- 40
2019-04-10 18:00:00 19.2 21 Noroeste 40 Norte 0 -- -- 37
2019-04-10 17:00:00 19.5 19 Noroeste 43 Noroeste 0 -- -- 40
2019-04-10 16:00:00 19 21 Noroeste 45 Noroeste 0 -- -- 40
2019-04-10 15:00:00 18.5 24 Noroeste 42 Noroeste 0 -- -- 41
2019-04-10 14:00:00 17.8 16 Noroeste 39 Oeste 0 -- -- 45
2019-04-10 13:00:00 16.3 10 Noroeste 29 Noroeste 0 -- -- 55
2019-04-10 12:00:00 15.1 10 Noroeste 24 Oeste 0 -- -- 62
2019-04-10 11:00:00 13.7 10 Oeste 18 Oeste 0 -- -- 74
2019-04-10 10:00:00 10.2 8 Sudoeste 14 Sudoeste 0 -- -- 89
2019-04-10 09:00:00 7.5 3 Oeste 8 Oeste 0 -- -- 98
2019-04-10 08:00:00 5.6 4 Noroeste 8 Noroeste 0 -- -- 97
2019-04-10 07:00:00 5.7 3 Noroeste 9 Oeste 0 -- -- 94
2019-04-10 06:00:00 7.1 6 Oeste 11 Oeste 0 -- -- 94
2019-04-10 05:00:00 7.2 4 Noroeste 12 Noroeste 0 -- -- 92
2019-04-10 04:00:00 8.9 9 Noroeste 16 Noroeste 0 -- -- 89
2019-04-10 03:00:00 9.2 8 Noroeste 18 Oeste 0 -- -- 89
2019-04-10 02:00:00 10.3 12 Noroeste 23 Noroeste 0 -- -- 85
2019-04-10 01:00:00 11.1 12 Noroeste 28 Noroeste 0 -- -- 81
2019-04-10 00:00:00 12 11 Noroeste 24 Noroeste 0 -- -- 75
2019-04-09 23:00:00 12.9 10 Noroeste 21 Noroeste 0 -- -- 70
2019-04-09 22:00:00 13.4 10 Noroeste 23 Noroeste 0 -- -- 67
2019-04-09 21:00:00 15 12 Oeste 29 Noroeste 0 -- -- 61
2019-04-09 20:00:00 16 15 Noroeste 33 Oeste 0 -- -- 61
2019-04-09 19:00:00 17.2 17 Noroeste 36 Oeste 0 -- -- 50
2019-04-09 18:00:00 17.2 21 Oeste 37 Noroeste 0 -- -- 53
2019-04-09 17:00:00 17 18 Sudoeste 38 Sudoeste 0 -- -- 62
2019-04-09 16:00:00 17.9 11 Sudoeste 28 Noroeste 0 -- -- 58
2019-04-09 15:00:00 17.8 17 Oeste 35 Oeste 0 -- -- 52
2019-04-09 14:00:00 17 14 Oeste 32 Oeste 0 -- -- 60
2019-04-09 13:00:00 16.5 17 Oeste 30 Oeste 0 -- -- 54
2019-04-09 12:00:00 14.7 11 Oeste 29 Oeste 0 -- -- 70
2019-04-09 11:00:00 14.4 10 Oeste 20 Oeste 0 -- -- 75
2019-04-09 10:00:00 11.4 6 Sudoeste 9 Oeste 0 -- -- 91
2019-04-09 09:00:00 7.1 2 Noroeste 5 Oeste 0 -- -- 98
2019-04-09 08:00:00 5.9 2 Oeste 4 Oeste 0 -- -- 96
2019-04-09 07:00:00 6.6 0 Calma 3 Norte 0 -- -- 97
2019-04-09 06:00:00 6.4 3 Noroeste 5 Oeste 0 -- -- 97
2019-04-09 05:00:00 6.3 3 Oeste 5 Oeste 0 -- -- 94
2019-04-09 04:00:00 7 3 Sudoeste 6 Noroeste 0 -- -- 94
2019-04-09 03:00:00 7.2 4 Noroeste 8 Oeste 0 -- -- 92
2019-04-09 02:00:00 9.2 4 Oeste 17 Noroeste 0 -- -- 84
2019-04-09 01:00:00 10.3 9 Noroeste 14 Noroeste 0 -- -- 79
2019-04-09 00:00:00 11.6 9 Noroeste 24 Noroeste 0 -- -- 73
2019-04-08 23:00:00 12.5 12 Noroeste 22 Noroeste 0 -- -- 70
2019-04-08 22:00:00 13.4 10 Noroeste 23 Noroeste 0 -- -- 66
2019-04-08 21:00:00 14 6 Sudoeste 26 Sudoeste 0 -- -- 84
2019-04-08 20:00:00 15.8 15 Sudoeste 33 Sudoeste 0 -- -- 78
2019-04-08 19:00:00 16.5 18 Sudoeste 37 Sudoeste 0 -- -- 77
2019-04-08 18:00:00 16.4 18 Sudoeste 35 Sudoeste 0 -- -- 78
2019-04-08 17:00:00 16.4 12 Sudoeste 30 Sudoeste 0 -- -- 80
2019-04-08 16:00:00 14.8 16 Sudoeste 26 Sudoeste 0.4 -- -- 90
2019-04-08 15:00:00 16.4 8 Sudoeste 19 Sudoeste 0 -- -- 77
2019-04-08 14:00:00 17.3 13 Oeste 23 Oeste 0 -- -- 71
2019-04-08 13:00:00 17.6 15 Oeste 27 Oeste 0 -- -- 74
2019-04-08 12:00:00 16.1 12 Oeste 21 Oeste 0 -- -- 88
2019-04-08 11:00:00 14.5 6 Sudoeste 19 Sudoeste 2.8 -- -- 97
2019-04-08 10:00:00 14 9 Sudoeste 22 Oeste 2 -- -- 96
2019-04-08 09:00:00 13.5 5 Sudoeste 13 Sudoeste 1 -- -- 97
2019-04-08 08:00:00 13.1 4 Sudoeste 10 Sudoeste 0.2 -- -- 97
2019-04-08 07:00:00 13.1 0 Calma 7 Sudoeste 0 -- -- 97
2019-04-08 06:00:00 12.8 4 Sudoeste 10 Sudoeste 0.2 -- -- 97
2019-04-08 05:00:00 12.9 6 Sudoeste 18 Oeste 0 -- -- 97
2019-04-08 04:00:00 13.4 10 Sudoeste 18 Sudoeste 0 -- -- 97
2019-04-08 03:00:00 13.7 8 Sudoeste 19 Sudoeste 0 -- -- 96
2019-04-08 02:00:00 13.5 6 Sudoeste 17 Sudoeste 0 -- -- 96
2019-04-08 01:00:00 13.8 7 Sudoeste 13 Sudoeste 0 -- -- 96
2019-04-08 00:00:00 13.9 4 Sudoeste 13 Oeste 0 -- -- 95
2019-04-07 23:00:00 14.2 6 Oeste 15 Oeste 1.8 -- -- 94
2019-04-07 22:00:00 13.9 4 Sur 14 Oeste 0 -- -- 89
2019-04-07 21:00:00 14.4 7 Oeste 14 Noroeste 0 -- -- 88
2019-04-07 20:00:00 15.2 9 Oeste 36 Noroeste 0 -- -- 88
2019-04-07 19:00:00 15.6 23 Oeste 40 Oeste 2.4 -- -- 91
2019-04-07 18:00:00 14.7 7 Sudoeste 21 Oeste 1.6 -- -- 95
2019-04-07 17:00:00 13.9 5 Sudeste 12 Sudeste 1.6 -- -- 93
2019-04-07 16:00:00 13.8 6 Sur 17 Sur 0.6 -- -- 92
2019-04-07 15:00:00 13.6 9 Sur 22 Sudoeste 0.2 -- -- 88
2019-04-07 14:00:00 14.4 14 Sudoeste 23 Sudoeste 0 -- -- 74
2019-04-07 13:00:00 13.6 8 Oeste 30 Oeste 0 -- -- 74
2019-04-07 12:00:00 15 12 Oeste 28 Oeste 0 -- -- 70
2019-04-07 11:00:00 13.6 9 Sudoeste 18 Oeste 0 -- -- 75
2019-04-07 10:00:00 11.3 6 Oeste 11 Noroeste 0 -- -- 87
2019-04-07 09:00:00 8.5 2 Noroeste 8 Oeste 0 -- -- 95
2019-04-07 08:00:00 8.4 4 Oeste 6 Sudoeste 0 -- -- 96
2019-04-07 07:00:00 7.8 3 Oeste 6 Noroeste 0 -- -- 95
2019-04-07 06:00:00 8.3 4 Sudoeste 9 Oeste 0 -- -- 93
2019-04-07 05:00:00 9.4 4 Oeste 28 Oeste 1.2 -- -- 92
2019-04-07 04:00:00 9.4 5 Noroeste 14 Oeste 0.6 -- -- 88
2019-04-07 03:00:00 9.4 8 Oeste 14 Oeste 0 -- -- 87
2019-04-07 02:00:00 8.9 5 Oeste 11 Oeste 0 -- -- 88
2019-04-07 01:00:00 9.2 6 Oeste 15 Oeste 0 -- -- 84
2019-04-07 00:00:00 10.2 8 Oeste 16 Oeste 0 -- -- 80
2019-04-06 23:00:00 10.7 11 Oeste 20 Oeste 0 -- -- 76
2019-04-06 22:00:00 11.8 8 Oeste 26 Oeste 0 -- -- 64
2019-04-06 21:00:00 13.4 17 Oeste 37 Oeste 0 -- -- 56
2019-04-06 20:00:00 15 21 Oeste 40 Oeste 0 -- -- 52
2019-04-06 19:00:00 16 18 Oeste 42 Oeste 0 -- -- 56
2019-04-06 18:00:00 15.7 22 Oeste 36 Oeste 0 -- -- 58
2019-04-06 17:00:00 13.8 14 Noroeste 44 Oeste 0 -- -- 68
2019-04-06 16:00:00 15 19 Oeste 41 Noroeste 0 -- -- 63
2019-04-06 15:00:00 13.8 17 Oeste 43 Oeste 2 -- -- 70
2019-04-06 14:00:00 12.9 16 Oeste 52 Noroeste 0.2 -- -- 68
2019-04-06 13:00:00 14.7 16 Oeste 33 Oeste 0 -- -- 61
2019-04-06 12:00:00 12.7 18 Oeste 28 Oeste 0 -- -- 70
2019-04-06 11:00:00 12.4 12 Oeste 23 Sudoeste 0 -- -- 78
2019-04-06 10:00:00 9.4 6 Sudoeste 14 Sudoeste 0.2 -- -- 96
2019-04-06 09:00:00 6.9 2 Sudoeste 6 Sur 0 -- -- 97
2019-04-06 08:00:00 6.1 3 Noroeste 6 Oeste 0.2 -- -- 97
2019-04-06 07:00:00 4.6 4 Oeste 6 Oeste 0 -- -- 97
2019-04-06 06:00:00 4.7 4 Oeste 8 Noroeste 0 -- -- 96
2019-04-06 05:00:00 5.5 5 Noroeste 11 Oeste 0 -- -- 96
2019-04-06 04:00:00 5 6 Oeste 9 Oeste 0 -- -- 95
2019-04-06 03:00:00 6 4 Oeste 9 Oeste 0 -- -- 94
2019-04-06 02:00:00 6.5 5 Oeste 11 Oeste 0 -- -- 93
2019-04-06 01:00:00 7 5 Oeste 12 Oeste 0 -- -- 91
2019-04-06 00:00:00 6.8 5 Oeste 11 Noroeste 0.2 -- -- 92
2019-04-05 23:00:00 7.2 7 Noroeste 13 Oeste 0 -- -- 91
2019-04-05 22:00:00 7.8 8 Oeste 15 Oeste 0 -- -- 88
2019-04-05 21:00:00 8.3 8 Noroeste 41 Oeste 1 -- -- 86
2019-04-05 20:00:00 11.7 18 Oeste 36 Oeste 0 -- -- 65
2019-04-05 19:00:00 12.3 13 Sudoeste 50 Oeste 2.4 -- -- 76
2019-04-05 18:00:00 13.7 9 Oeste 39 Oeste 0 -- -- 60
2019-04-05 17:00:00 14.8 20 Oeste 52 Oeste 0 -- -- 48
2019-04-05 16:00:00 15.2 19 Oeste 41 Sudoeste 0 -- -- 44
2019-04-05 15:00:00 12.7 19 Oeste 41 Noroeste 0 -- -- 58
2019-04-05 14:00:00 9.7 15 Noroeste 52 Noroeste 0 -- -- 72
2019-04-05 13:00:00 12.1 27 Noroeste 44 Oeste 0 -- -- 60
2019-04-05 12:00:00 11.2 18 Noroeste 33 Noroeste 0 -- -- 71
2019-04-05 11:00:00 10.2 18 Oeste 36 Noroeste 0 -- -- 78
2019-04-05 10:00:00 10 11 Oeste 24 Oeste 1 -- -- 95
2019-04-05 09:00:00 8.4 0 Calma 4 Noroeste 0 -- -- 96
2019-04-05 08:00:00 9 3 Noroeste 8 Oeste 0 -- -- 95
2019-04-05 07:00:00 9.1 3 Sudoeste 9 Sudoeste 0 -- -- 96
2019-04-05 06:00:00 9.3 4 Oeste 21 Oeste 4.8 -- -- 95
2019-04-05 05:00:00 9.2 3 Sudeste 7 Este 2.4 -- -- 93
2019-04-05 04:00:00 9.2 0 Calma 4 Este 0.2 -- -- 89
2019-04-05 03:00:00 9.2 2 Sudoeste 10 Sudoeste 0.8 -- -- 86
2019-04-05 02:00:00 10 5 Oeste 13 Oeste 0 -- -- 76
2019-04-05 01:00:00 10 4 Oeste 9 Sudoeste 0 -- -- 69
2019-04-05 00:00:00 10.8 6 Oeste 21 Oeste 0 -- -- 63
2019-04-04 23:00:00 11.7 13 Noroeste 36 Noroeste 0 -- -- 58
2019-04-04 22:00:00 12.8 12 Oeste 22 Noroeste 0 -- -- 51
2019-04-04 21:00:00 13.5 9 Sudoeste 33 Sudoeste 0 -- -- 53
2019-04-04 20:00:00 15.5 16 Sudoeste 42 Sudoeste 0 -- -- 47
2019-04-04 19:00:00 17.4 18 Sudoeste 37 Oeste 0 -- -- 42
2019-04-04 18:00:00 19.5 15 Oeste 34 Oeste 0 -- -- 26
2019-04-04 17:00:00 19.3 15 Oeste 31 Sudoeste 0 -- -- 25
2019-04-04 16:00:00 19.6 14 Sudoeste 27 Sudoeste 0 -- -- 27
2019-04-04 15:00:00 18.6 6 Oeste 21 Oeste 0 -- -- 28
2019-04-04 14:00:00 16.8 8 Noroeste 19 Noroeste 0 -- -- 32
2019-04-04 13:00:00 15.5 8 Noroeste 18 Noroeste 0 -- -- 36
2019-04-04 12:00:00 14 4 Noroeste 14 Noroeste 0 -- -- 41
2019-04-04 11:00:00 12.2 5 Noroeste 18 Noroeste 0 -- -- 47
2019-04-04 10:00:00 9.7 8 Noroeste 17 Norte 0 -- -- 60
2019-04-04 09:00:00 6 8 Noroeste 16 Noroeste 0 -- -- 77
2019-04-04 08:00:00 3.8 6 Noroeste 12 Norte 0 -- -- 83
2019-04-04 07:00:00 4.3 4 Noroeste 8 Noroeste 0 -- -- 82
2019-04-04 06:00:00 5.3 4 Noroeste 10 Norte 0 -- -- 80
2019-04-04 05:00:00 6.5 4 Noroeste 11 Noroeste 0 -- -- 77
2019-04-04 04:00:00 7.7 6 Noroeste 13 Noroeste 0 -- -- 72
2019-04-04 03:00:00 8.7 3 Noroeste 13 Oeste 0 -- -- 68
2019-04-04 02:00:00 9.5 8 Noroeste 15 Noroeste 0 -- -- 64
2019-04-04 01:00:00 10.6 8 Noroeste 15 Noroeste 0 -- -- 59
2019-04-04 00:00:00 12 9 Noroeste 19 Noroeste 0 -- -- 54
2019-04-03 23:00:00 13.1 10 Noroeste 18 Noroeste 0 -- -- 49
2019-04-03 22:00:00 14.1 10 Noroeste 21 Noroeste 0 -- -- 47
2019-04-03 21:00:00 15.8 9 Noroeste 29 Noroeste 0 -- -- 44
2019-04-03 20:00:00 18 12 Noroeste 31 Noroeste 0 -- -- 40
2019-04-03 19:00:00 19.2 18 Noroeste 36 Noroeste 0 -- -- 38
2019-04-03 18:00:00 20 19 Noroeste 37 Noroeste 0 -- -- 38
2019-04-03 17:00:00 20.8 14 Noroeste 39 Noroeste 0 -- -- 35
2019-04-03 16:00:00 20.8 18 Oeste 34 Oeste 0 -- -- 38
2019-04-03 15:00:00 19.5 17 Noroeste 33 Noroeste 0 -- -- 41
2019-04-03 14:00:00 19.4 13 Noroeste 31 Oeste 0 -- -- 41
2019-04-03 13:00:00 18.5 18 Oeste 26 Noroeste 0 -- -- 43
2019-04-03 12:00:00 17.5 12 Noroeste 22 Noroeste 0 -- -- 51
2019-04-03 11:00:00 15 3 Sudoeste 9 Sudoeste 0 -- -- 79
2019-04-03 10:00:00 11.6 3 Sur 6 Sur 0 -- -- 97
2019-04-03 09:00:00 7.4 0 Calma 4 Norte 0 -- -- 98
2019-04-03 08:00:00 6.5 0 Calma 4 Noroeste 0 -- -- 97
2019-04-03 07:00:00 6.7 0 Calma 3 Nordeste 0 -- -- 96
2019-04-03 06:00:00 7.6 2 Nordeste 8 Noroeste 0 -- -- 98
2019-04-03 05:00:00 7.3 2 Noroeste 3 Noroeste 0 -- -- 96
2019-04-03 04:00:00 8 0 Calma 3 Noroeste 0 -- -- 96
2019-04-03 03:00:00 8.5 0 Calma 3 Norte 0 -- -- 95
2019-04-03 02:00:00 10 0 Calma 7 Noroeste 0 -- -- 93
2019-04-03 01:00:00 10.7 5 Norte 8 Noroeste 0 -- -- 92
2019-04-03 00:00:00 12.3 3 Oeste 13 Oeste 0 -- -- 87
2019-04-02 23:00:00 14.5 7 Sudoeste 14 Oeste 0 -- -- 81
2019-04-02 22:00:00 15.6 8 Oeste 13 Sudoeste 0 -- -- 78
2019-04-02 21:00:00 17.4 7 Sudoeste 20 Sudoeste 0 -- -- 69
2019-04-02 20:00:00 19.9 10 Sudoeste 29 Sudoeste 0 -- -- 60
2019-04-02 19:00:00 22.6 7 Sudoeste 16 Sur 0 -- -- 44
2019-04-02 18:00:00 22.9 10 Sur 19 Sudoeste 0 -- -- 43
2019-04-02 17:00:00 22.4 10 Sudoeste 19 Sur 0 -- -- 46
2019-04-02 16:00:00 21 5 Nordeste 13 Sudeste 0 -- -- 56
2019-04-02 15:00:00 20.5 8 Sudoeste 20 Sudeste 0 -- -- 59
2019-04-02 14:00:00 19.6 5 Sudeste 19 Sudeste 0 -- -- 62
2019-04-02 13:00:00 18.4 9 Sudeste 16 Sudeste 0 -- -- 69
2019-04-02 12:00:00 16.9 7 Sudeste 14 Sudeste 0 -- -- 76
2019-04-02 11:00:00 15.6 5 Este 12 Nordeste 0 -- -- 81
2019-04-02 10:00:00 13 6 Este 10 Este 0 -- -- 96
2019-04-02 09:00:00 10.4 4 Nordeste 11 Nordeste 0 -- -- 97
2019-04-02 08:00:00 9.5 8 Nordeste 12 Norte 0 -- -- 97
2019-04-02 07:00:00 8.7 3 Norte 8 Norte 0 -- -- 96
2019-04-02 06:00:00 9.6 2 Sudeste 9 Nordeste 0 -- -- 96
2019-04-02 05:00:00 10.9 6 Norte 9 Norte 0 -- -- 97
2019-04-02 04:00:00 8.4 4 Norte 7 Nordeste 0 -- -- 96
2019-04-02 03:00:00 8.6 3 Norte 9 Norte 0 -- -- 96
2019-04-02 02:00:00 9 3 Norte 8 Norte 0 -- -- 97
2019-04-02 01:00:00 9.1 3 Norte 5 Norte 0 -- -- 95
2019-04-02 00:00:00 10.3 0 Calma 4 Norte 0 -- -- 93
2019-04-01 23:00:00 12.1 3 Noroeste 8 Norte 0 -- -- 89
2019-04-01 22:00:00 13.3 7 Noroeste 14 Noroeste 0 -- -- 85
2019-04-01 21:00:00 14.7 6 Sudoeste 15 Sudoeste 0 -- -- 80
2019-04-01 20:00:00 16.7 10 Sudoeste 22 Sudoeste 0 -- -- 74
2019-04-01 19:00:00 18.3 9 Sur 21 Sudeste 0 -- -- 70
2019-04-01 18:00:00 16.6 4 Este 9 Nordeste 0 -- -- 79
2019-04-01 17:00:00 14.3 2 Oeste 15 Sudoeste 2 -- -- 87
2019-04-01 16:00:00 12.4 5 Noroeste 26 Sudeste 7.8 -- -- 87
2019-04-01 15:00:00 19.3 9 Sur 18 Sur 0 -- -- 58
2019-04-01 14:00:00 20.7 12 Sudeste 19 Sudeste 0 -- -- 61
2019-04-01 13:00:00 18.7 3 Nordeste 11 Sudeste 0 -- -- 65
2019-04-01 12:00:00 16.9 2 Oeste 11 Sudeste 0 -- -- 78
2019-04-01 11:00:00 15.7 5 Este 10 Este 0 -- -- 88
2019-04-01 10:00:00 13.2 4 Este 12 Este 0 -- -- 98
2019-04-01 09:00:00 10.8 5 Norte 9 Nordeste 0 -- -- 98
2019-04-01 08:00:00 11.1 5 Nordeste 8 Nordeste 0 -- -- 97
2019-04-01 07:00:00 10.1 5 Nordeste 8 Nordeste 0 -- -- 98
2019-04-01 06:00:00 10 5 Nordeste 8 Nordeste 0 -- -- 97
2019-04-01 05:00:00 11.3 5 Este 10 Este 0 -- -- 96
2019-04-01 04:00:00 11.6 3 Nordeste 9 Este 0 -- -- 97
2019-04-01 03:00:00 11.3 3 Nordeste 7 Nordeste 0 -- -- 97
2019-04-01 02:00:00 9.5 4 Nordeste 7 Este 0 -- -- 96
2019-04-01 01:00:00 10.2 4 Nordeste 11 Sur 0 -- -- 95
2019-04-01 00:00:00 11.3 7 Norte 10 Nordeste 0 -- -- 95
2019-03-31 23:00:00 10.7 3 Norte 6 Norte 0 -- -- 94
2019-03-31 22:00:00 12.8 4 Norte 9 Noroeste 0 -- -- 89
2019-03-31 21:00:00 13.3 5 Noroeste 7 Noroeste 0 -- -- 92
2019-03-31 20:00:00 15.9 0 Calma 6 Sur 0 -- -- 85
2019-03-31 19:00:00 16.2 4 Sudeste 13 Oeste 0.4 -- -- 83
2019-03-31 18:00:00 13.2 6 Norte 17 Noroeste 3.6 -- -- 92
2019-03-31 17:00:00 14 9 Noroeste 19 Norte 1 -- -- 81
2019-03-31 16:00:00 15.9 11 Norte 22 Noroeste 1.2 -- -- 77
2019-03-31 15:00:00 19.7 4 Nordeste 14 Nordeste 0 -- -- 59
2019-03-31 14:00:00 17.8 8 Norte 14 Norte 0 -- -- 64
2019-03-31 13:00:00 19.2 4 Este 18 Sudeste 0 -- -- 58
2019-03-31 12:00:00 19.9 8 Sudeste 16 Sudeste 0 -- -- 57
2019-03-31 11:00:00 17.7 6 Este 15 Sudeste 0 -- -- 65
2019-03-31 10:00:00 14.5 2 Nordeste 9 Este 0 -- -- 75
2019-03-31 09:00:00 12.2 3 Nordeste 10 Nordeste 0 -- -- 85
2019-03-31 08:00:00 12.1 2 Este 8 Norte 0 -- -- 87
2019-03-31 07:00:00 12.6 6 Norte 10 Norte 0 -- -- 88
2019-03-31 06:00:00 11 5 Noroeste 9 Noroeste 0 -- -- 94
2019-03-31 05:00:00 10.5 5 Norte 7 Norte 0 -- -- 92
2019-03-31 03:00:00 12 4 Norte 5 Norte 0 -- -- 86
2019-03-31 01:00:00 13.2 0 Calma 9 Noroeste 0 -- -- 84
2019-03-31 00:00:00 12.8 7 Norte 14 Noroeste 0 -- -- 86
2019-03-30 23:00:00 12.3 6 Noroeste 10 Noroeste 0 -- -- 85
2019-03-30 22:00:00 12.9 5 Noroeste 8 Oeste 0 -- -- 80
2019-03-30 21:00:00 15.2 5 Noroeste 14 Sudoeste 0 -- -- 70
2019-03-30 20:00:00 16.9 8 Sudoeste 23 Sudoeste 0 -- -- 64
2019-03-30 19:00:00 19.8 10 Sudoeste 31 Sudoeste 0 -- -- 54
2019-03-30 18:00:00 23 16 Sur 36 Sudoeste 0 -- -- 42
2019-03-30 17:00:00 24.5 6 Este 26 Este 0 -- -- 35
2019-03-30 16:00:00 25 8 Este 28 Sudeste 0 -- -- 34
2019-03-30 15:00:00 24.2 9 Este 29 Este 0 -- -- 36
2019-03-30 14:00:00 23.7 15 Sudeste 29 Este 0 -- -- 38
2019-03-30 13:00:00 22.2 11 Este 27 Sudeste 0 -- -- 42
2019-03-30 12:00:00 20.7 9 Este 23 Este 0 -- -- 46
2019-03-30 11:00:00 18.5 9 Este 23 Nordeste 0 -- -- 52
2019-03-30 10:00:00 15.9 13 Este 23 Este 0 -- -- 59
2019-03-30 09:00:00 13.7 9 Nordeste 17 Nordeste 0 -- -- 67
2019-03-30 08:00:00 10.4 5 Norte 14 Norte 0 -- -- 79
2019-03-30 07:00:00 9.7 7 Norte 17 Norte 0 -- -- 80
2019-03-30 06:00:00 10 9 Norte 16 Nordeste 0 -- -- 78
2019-03-30 05:00:00 10.4 6 Nordeste 17 Norte 0 -- -- 76
2019-03-30 04:00:00 9.9 10 Norte 16 Norte 0 -- -- 80
2019-03-30 03:00:00 7.8 5 Nordeste 8 Nordeste 0 -- -- 89
2019-03-30 02:00:00 8.5 3 Nordeste 6 Nordeste 0 -- -- 86
2019-03-30 01:00:00 10.1 3 Este 5 Este 0 -- -- 82
2019-03-30 00:00:00 10.7 3 Este 8 Este 0 -- -- 80
2019-03-29 23:00:00 10.5 3 Norte 5 Noroeste 0 -- -- 79
2019-03-29 22:00:00 12.1 4 Noroeste 8 Noroeste 0 -- -- 77
2019-03-29 21:00:00 13.6 3 Norte 5 Sudoeste 0 -- -- 67
2019-03-29 20:00:00 16.5 5 Sur 15 Sur 0 -- -- 58
2019-03-29 19:00:00 19.1 8 Oeste 19 Sudoeste 0 -- -- 52
2019-03-29 18:00:00 20.8 10 Sudoeste 17 Sudoeste 0 -- -- 45
2019-03-29 17:00:00 23.8 9 Sudeste 22 Sudeste 0 -- -- 29
2019-03-29 16:00:00 23.9 10 Sudeste 25 Sudeste 0 -- -- 29
2019-03-29 15:00:00 22.7 9 Sudeste 27 Sudeste 0 -- -- 31
2019-03-29 14:00:00 21.9 14 Sudeste 28 Sudeste 0 -- -- 31
2019-03-29 13:00:00 21 13 Este 27 Sudeste 0 -- -- 32
2019-03-29 12:00:00 20 14 Este 27 Este 0 -- -- 33
2019-03-29 11:00:00 17.7 8 Este 24 Este 0 -- -- 38
2019-03-29 10:00:00 15 11 Nordeste 23 Nordeste 0 -- -- 45
2019-03-29 09:00:00 12.8 10 Nordeste 24 Este 0 -- -- 51
2019-03-29 08:00:00 10 5 Nordeste 13 Nordeste 0 -- -- 59
2019-03-29 07:00:00 9.7 6 Nordeste 18 Este 0 -- -- 61
2019-03-29 06:00:00 10.1 6 Nordeste 16 Nordeste 0 -- -- 61
2019-03-29 05:00:00 10.6 7 Este 17 Este 0 -- -- 61
2019-03-29 04:00:00 10.7 7 Este 23 Este 0 -- -- 62
2019-03-29 03:00:00 10.5 7 Nordeste 18 Este 0 -- -- 61
2019-03-29 02:00:00 7 4 Norte 9 Nordeste 0 -- -- 57
2019-03-29 01:00:00 7.5 5 Nordeste 10 Nordeste 0 -- -- 53
2019-03-29 00:00:00 7 4 Nordeste 8 Nordeste 0 -- -- 53
2019-03-28 23:00:00 7.6 4 Nordeste 8 Nordeste 0 -- -- 51
2019-03-28 22:00:00 11.8 5 Nordeste 10 Este 0 -- -- 37
2019-03-28 21:00:00 14.6 6 Sudeste 17 Nordeste 0 -- -- 30
2019-03-28 20:00:00 17.4 8 Este 26 Este 0 -- -- 24
2019-03-28 19:00:00 19.7 12 Este 33 Nordeste 0 -- -- 22
2019-03-28 18:00:00 21.1 16 Este 35 Nordeste 0 -- -- 25
2019-03-28 17:00:00 22.9 14 Este 38 Este 0 -- -- 29
2019-03-28 16:00:00 23 17 Este 33 Este 0 -- -- 29
2019-03-28 15:00:00 22.5 18 Sudeste 41 Este 0 -- -- 31
2019-03-28 14:00:00 20.6 19 Este 51 Este 0 -- -- 33
2019-03-28 13:00:00 19.9 17 Este 43 Nordeste 0 -- -- 35
2019-03-28 12:00:00 18.1 17 Este 41 Este 0 -- -- 42
2019-03-28 11:00:00 17.1 20 Este 51 Este 0 -- -- 44
2019-03-28 10:00:00 15.5 22 Este 38 Nordeste 0 -- -- 50
2019-03-28 09:00:00 13.2 18 Este 33 Este 0 -- -- 59
2019-03-28 08:00:00 11.2 14 Nordeste 30 Este 0 -- -- 66
2019-03-28 07:00:00 10.4 8 Este 23 Nordeste 0 -- -- 72
2019-03-28 06:00:00 8.7 5 Nordeste 13 Nordeste 0 -- -- 74
2019-03-28 05:00:00 8.8 4 Norte 13 Noroeste 0 -- -- 67
2019-03-28 04:00:00 9 6 Norte 11 Norte 0 -- -- 67
2019-03-28 03:00:00 8.8 8 Norte 14 Norte 0 -- -- 68
2019-03-28 02:00:00 9.3 7 Norte 11 Nordeste 0 -- -- 68
2019-03-28 01:00:00 7.7 6 Norte 9 Norte 0 -- -- 76
2019-03-28 00:00:00 7.7 4 Nordeste 9 Este 0 -- -- 72
2019-03-27 23:00:00 10.6 2 Sudeste 10 Sudeste 0 -- -- 61
2019-03-27 22:00:00 11.5 0 Calma 15 Sudeste 0 -- -- 57
2019-03-27 21:00:00 13.8 4 Sur 17 Sur 0 -- -- 47
2019-03-27 20:00:00 16.7 7 Sudoeste 17 Sudoeste 0 -- -- 42
2019-03-27 19:00:00 21.1 9 Sudeste 21 Sudeste 0 -- -- 22
2019-03-27 18:00:00 22.6 10 Sudeste 30 Sudeste 0 -- -- 21
2019-03-27 17:00:00 23 13 Este 30 Sudeste 0 -- -- 21
2019-03-27 16:00:00 22.3 16 Este 34 Este 0 -- -- 23
2019-03-27 15:00:00 22.3 14 Este 32 Este 0 -- -- 25
2019-03-27 14:00:00 21.8 17 Este 36 Este 0 -- -- 29
2019-03-27 13:00:00 20.3 17 Este 35 Este 0 -- -- 36
2019-03-27 12:00:00 19.7 15 Este 38 Este 0 -- -- 39
2019-03-27 11:00:00 18.1 15 Este 35 Este 0 -- -- 39
2019-03-27 10:00:00 16.5 17 Este 33 Este 0 -- -- 44
2019-03-27 09:00:00 13.6 13 Este 27 Nordeste 0 -- -- 54
2019-03-27 08:00:00 11.3 7 Este 18 Este 0 -- -- 68
2019-03-27 07:00:00 11 6 Nordeste 16 Nordeste 0 -- -- 71
2019-03-27 06:00:00 11 5 Norte 10 Norte 0 -- -- 75
2019-03-27 05:00:00 11 6 Nordeste 12 Norte 0 -- -- 77
2019-03-27 04:00:00 9.2 3 Norte 10 Nordeste 0 -- -- 81
2019-03-27 03:00:00 9.5 0 Calma 10 Sudeste 0 -- -- 81
2019-03-27 02:00:00 11.9 3 Este 13 Sudeste 0 -- -- 72
2019-03-27 01:00:00 11.7 5 Este 10 Este 0 -- -- 73
2019-03-27 00:00:00 14 4 Sudeste 15 Sudeste 0 -- -- 63
2019-03-26 23:00:00 12.4 0 Calma 5 Sudeste 0 -- -- 65
2019-03-26 22:00:00 15.5 5 Sudeste 13 Sudeste 0 -- -- 52
2019-03-26 21:00:00 15.8 5 Sur 8 Sur 0 -- -- 53
2019-03-26 20:00:00 17.9 2 Oeste 10 Sudoeste 0 -- -- 47
2019-03-26 19:00:00 20.8 7 Sur 15 Sur 0 -- -- 39
2019-03-26 18:00:00 22.4 8 Sudoeste 26 Oeste 0 -- -- 39
2019-03-26 17:00:00 23.4 17 Sudoeste 38 Sudoeste 0 -- -- 40
2019-03-26 16:00:00 26.6 5 Nordeste 29 Sudeste 0 -- -- 31
2019-03-26 15:00:00 26.8 14 Este 35 Sudeste 0 -- -- 31
2019-03-26 14:00:00 25.2 14 Este 33 Este 0 -- -- 33
2019-03-26 13:00:00 25 18 Este 37 Este 0 -- -- 33
2019-03-26 12:00:00 23.2 20 Este 38 Nordeste 0 -- -- 33
2019-03-26 11:00:00 21.3 15 Este 37 Este 0 -- -- 36
2019-03-26 10:00:00 19.2 17 Este 41 Nordeste 0 -- -- 41
2019-03-26 09:00:00 17.1 14 Este 31 Este 0 -- -- 48
2019-03-26 08:00:00 16.1 14 Nordeste 32 Este 0 -- -- 54
2019-03-26 07:00:00 15.7 10 Este 29 Este 0 -- -- 54
2019-03-26 06:00:00 15.2 7 Este 26 Este 0 -- -- 55
2019-03-26 05:00:00 15.4 11 Este 25 Nordeste 0 -- -- 57
2019-03-26 04:00:00 14 7 Nordeste 13 Nordeste 0 -- -- 60
2019-03-26 03:00:00 12.4 5 Nordeste 9 Nordeste 0 -- -- 65
2019-03-26 02:00:00 12 5 Norte 13 Nordeste 0 -- -- 67
2019-03-26 01:00:00 9.3 4 Norte 9 Nordeste 0 -- -- 78
2019-03-26 00:00:00 10 5 Norte 7 Norte 0 -- -- 74
2019-03-25 23:00:00 12.3 0 Calma 9 Sudeste 0 -- -- 66
2019-03-25 22:00:00 16.9 5 Este 11 Este 0 -- -- 47
2019-03-25 21:00:00 18.5 5 Nordeste 13 Nordeste 0 -- -- 42
2019-03-25 20:00:00 20.5 5 Nordeste 20 Este 0 -- -- 38
2019-03-25 19:00:00 22.7 11 Este 26 Este 0 -- -- 34
2019-03-25 18:00:00 23.8 10 Nordeste 34 Este 0 -- -- 33
2019-03-25 17:00:00 24.9 16 Este 41 Este 0 -- -- 30
2019-03-25 16:00:00 25.2 15 Este 44 Este 0 -- -- 28
2019-03-25 15:00:00 24.4 12 Este 44 Este 0 -- -- 30
2019-03-25 14:00:00 24.6 19 Este 36 Este 0 -- -- 29
2019-03-25 13:00:00 23.5 18 Este 35 Este 0 -- -- 33
2019-03-25 12:00:00 21.1 16 Nordeste 31 Este 0 -- -- 36
2019-03-25 11:00:00 20.3 15 Este 29 Sudeste 0 -- -- 41
2019-03-25 10:00:00 17.5 14 Nordeste 24 Nordeste 0 -- -- 49
2019-03-25 09:00:00 14.3 7 Nordeste 15 Nordeste 0 -- -- 61
2019-03-25 08:00:00 11.5 6 Norte 11 Norte 0 -- -- 68
2019-03-25 07:00:00 11.3 6 Norte 13 Norte 0 -- -- 68
2019-03-25 06:00:00 11.7 6 Norte 13 Norte 0 -- -- 67
2019-03-25 05:00:00 12 6 Norte 15 Norte 0 -- -- 66
2019-03-25 04:00:00 12.1 6 Norte 13 Norte 0 -- -- 65
2019-03-25 03:00:00 12.1 6 Norte 12 Norte 0 -- -- 64
2019-03-25 02:00:00 12.1 8 Norte 10 Norte 0 -- -- 64
2019-03-25 01:00:00 11.1 5 Norte 9 Nordeste 0 -- -- 68
2019-03-25 00:00:00 14.8 6 Nordeste 12 Nordeste 0 -- -- 55